sensor_id;sensor_type;location;lat;lon;timestamp;temperature;humidity
22035;DHT22;11181;51.002;4.356;2023-12-04T00:00:08;4.60;99.90
22035;DHT22;11181;51.002;4.356;2023-12-04T00:02:35;4.60;99.90
22035;DHT22;11181;51.002;4.356;2023-12-04T00:05:04;4.60;99.90
22035;DHT22;11181;51.002;4.356;2023-12-04T00:07:31;4.60;99.90
22035;DHT22;11181;51.002;4.356;2023-12-04T00:09:58;4.70;99.90
22035;DHT22;11181;51.002;4.356;2023-12-04T00:12:25;4.70;99.90
22035;DHT22;11181;51.002;4.356;2023-12-04T00:14:53;4.80;99.90
22035;DHT22;11181;51.002;4.356;2023-12-04T00:17:20;4.70;99.90
22035;DHT22;11181;51.002;4.356;2023-12-04T00:19:47;4.80;99.90
22035;DHT22;11181;51.002;4.356;2023-12-04T00:22:14;4.70;99.90
22035;DHT22;11181;51.002;4.356;2023-12-04T00:24:41;4.70;99.90
22035;DHT22;11181;51.002;4.356;2023-12-04T00:27:08;4.70;99.90
22035;DHT22;11181;51.002;4.356;2023-12-04T00:29:35;4.80;99.90
22035;DHT22;11181;51.002;4.356;2023-12-04T00:32:04;4.80;99.90
22035;DHT22;11181;51.002;4.356;2023-12-04T00:34:31;4.80;99.90
22035;DHT22;11181;51.002;4.356;2023-12-04T00:36:58;4.70;99.90
22035;DHT22;11181;51.002;4.356;2023-12-04T00:39:25;4.70;99.90
22035;DHT22;11181;51.002;4.356;2023-12-04T00:41:51;4.60;99.90
22035;DHT22;11181;51.002;4.356;2023-12-04T00:44:18;4.60;99.90
22035;DHT22;11181;51.002;4.356;2023-12-04T00:46:45;4.80;99.90
22035;DHT22;11181;51.002;4.356;2023-12-04T00:49:13;4.90;99.90
22035;DHT22;11181;51.002;4.356;2023-12-04T00:51:40;4.90;99.90
22035;DHT22;11181;51.002;4.356;2023-12-04T00:54:07;5.00;99.90
22035;DHT22;11181;51.002;4.356;2023-12-04T00:56:34;5.10;99.90
22035;DHT22;11181;51.002;4.356;2023-12-04T00:59:01;5.20;99.90
22035;DHT22;11181;51.002;4.356;2023-12-04T01:01:29;5.30;99.90
22035;DHT22;11181;51.002;4.356;2023-12-04T01:03:56;5.40;99.90
22035;DHT22;11181;51.002;4.356;2023-12-04T01:06:25;5.50;99.90
22035;DHT22;11181;51.002;4.356;2023-12-04T01:08:53;5.40;99.90
22035;DHT22;11181;51.002;4.356;2023-12-04T01:11:20;5.40;99.90
22035;DHT22;11181;51.002;4.356;2023-12-04T01:13:48;5.40;99.90
22035;DHT22;11181;51.002;4.356;2023-12-04T01:16:15;5.30;99.90
22035;DHT22;11181;51.002;4.356;2023-12-04T01:18:42;5.10;99.90
22035;DHT22;11181;51.002;4.356;2023-12-04T01:21:09;5.10;99.90
22035;DHT22;11181;51.002;4.356;2023-12-04T01:23:38;5.20;99.90
22035;DHT22;11181;51.002;4.356;2023-12-04T01:26:05;5.10;99.90
22035;DHT22;11181;51.002;4.356;2023-12-04T01:28:32;5.00;99.90
22035;DHT22;11181;51.002;4.356;2023-12-04T01:30:58;5.00;99.90
22035;DHT22;11181;51.002;4.356;2023-12-04T01:33:25;4.80;99.90
22035;DHT22;11181;51.002;4.356;2023-12-04T01:35:52;4.80;99.90
22035;DHT22;11181;51.002;4.356;2023-12-04T01:38:19;4.80;99.90
22035;DHT22;11181;51.002;4.356;2023-12-04T01:40:47;4.80;99.90
22035;DHT22;11181;51.002;4.356;2023-12-04T01:43:14;4.70;99.90
22035;DHT22;11181;51.002;4.356;2023-12-04T01:45:41;4.70;99.90
22035;DHT22;11181;51.002;4.356;2023-12-04T01:48:09;4.70;99.90
22035;DHT22;11181;51.002;4.356;2023-12-04T01:50:36;4.70;99.90
22035;DHT22;11181;51.002;4.356;2023-12-04T01:53:04;4.80;99.90
22035;DHT22;11181;51.002;4.356;2023-12-04T01:55:32;4.70;99.90
22035;DHT22;11181;51.002;4.356;2023-12-04T01:58:02;4.70;99.90
22035;DHT22;11181;51.002;4.356;2023-12-04T02:00:30;4.80;99.90
22035;DHT22;11181;51.002;4.356;2023-12-04T02:02:58;4.80;99.90
22035;DHT22;11181;51.002;4.356;2023-12-04T02:05:26;4.80;99.90
22035;DHT22;11181;51.002;4.356;2023-12-04T02:07:54;4.90;99.90
22035;DHT22;11181;51.002;4.356;2023-12-04T02:10:21;4.90;99.90
22035;DHT22;11181;51.002;4.356;2023-12-04T02:12:49;4.80;99.90
22035;DHT22;11181;51.002;4.356;2023-12-04T02:15:17;4.80;99.90
22035;DHT22;11181;51.002;4.356;2023-12-04T02:17:44;4.80;99.90
22035;DHT22;11181;51.002;4.356;2023-12-04T02:20:13;4.80;99.90
22035;DHT22;11181;51.002;4.356;2023-12-04T02:22:40;4.80;99.90
22035;DHT22;11181;51.002;4.356;2023-12-04T02:25:09;4.70;99.90
22035;DHT22;11181;51.002;4.356;2023-12-04T02:27:40;4.70;99.90
22035;DHT22;11181;51.002;4.356;2023-12-04T02:30:11;4.70;99.90
22035;DHT22;11181;51.002;4.356;2023-12-04T02:32:44;4.60;99.90
22035;DHT22;11181;51.002;4.356;2023-12-04T02:35:12;4.60;99.90
22035;DHT22;11181;51.002;4.356;2023-12-04T02:37:41;4.60;99.90
22035;DHT22;11181;51.002;4.356;2023-12-04T02:40:11;4.60;99.90
22035;DHT22;11181;51.002;4.356;2023-12-04T02:42:39;4.80;99.90
22035;DHT22;11181;51.002;4.356;2023-12-04T02:45:07;4.90;99.90
22035;DHT22;11181;51.002;4.356;2023-12-04T02:47:34;5.00;99.90
22035;DHT22;11181;51.002;4.356;2023-12-04T02:50:00;5.00;99.90
22035;DHT22;11181;51.002;4.356;2023-12-04T02:52:27;5.10;99.90
22035;DHT22;11181;51.002;4.356;2023-12-04T02:54:54;5.20;99.90
22035;DHT22;11181;51.002;4.356;2023-12-04T02:57:22;5.10;99.90
22035;DHT22;11181;51.002;4.356;2023-12-04T02:59:49;5.00;99.90
22035;DHT22;11181;51.002;4.356;2023-12-04T03:02:16;5.00;99.90
22035;DHT22;11181;51.002;4.356;2023-12-04T03:04:43;5.10;99.90
22035;DHT22;11181;51.002;4.356;2023-12-04T03:07:10;5.20;99.90
22035;DHT22;11181;51.002;4.356;2023-12-04T03:09:37;5.30;99.90
22035;DHT22;11181;51.002;4.356;2023-12-04T03:12:04;5.20;99.90
22035;DHT22;11181;51.002;4.356;2023-12-04T03:14:33;5.20;99.90
22035;DHT22;11181;51.002;4.356;2023-12-04T03:17:00;5.10;99.90
22035;DHT22;11181;51.002;4.356;2023-12-04T03:19:26;5.10;99.90
22035;DHT22;11181;51.002;4.356;2023-12-04T03:21:55;5.10;99.90
22035;DHT22;11181;51.002;4.356;2023-12-04T03:24:22;5.10;99.90
22035;DHT22;11181;51.002;4.356;2023-12-04T03:26:49;5.20;99.90
22035;DHT22;11181;51.002;4.356;2023-12-04T03:29:16;5.20;99.90
22035;DHT22;11181;51.002;4.356;2023-12-04T03:31:44;5.30;99.90
22035;DHT22;11181;51.002;4.356;2023-12-04T03:34:11;5.30;99.90
22035;DHT22;11181;51.002;4.356;2023-12-04T03:36:38;5.30;99.90
22035;DHT22;11181;51.002;4.356;2023-12-04T03:39:04;5.20;99.90
22035;DHT22;11181;51.002;4.356;2023-12-04T03:41:31;5.20;99.90
22035;DHT22;11181;51.002;4.356;2023-12-04T03:43:58;5.20;99.90
22035;DHT22;11181;51.002;4.356;2023-12-04T03:46:25;5.10;99.90
22035;DHT22;11181;51.002;4.356;2023-12-04T03:48:54;5.10;99.90
22035;DHT22;11181;51.002;4.356;2023-12-04T03:51:21;5.00;99.90
22035;DHT22;11181;51.002;4.356;2023-12-04T03:53:48;4.90;99.90
22035;DHT22;11181;51.002;4.356;2023-12-04T03:56:15;4.80;99.90
22035;DHT22;11181;51.002;4.356;2023-12-04T03:58:42;4.70;99.90
22035;DHT22;11181;51.002;4.356;2023-12-04T04:01:09;4.80;99.90
22035;DHT22;11181;51.002;4.356;2023-12-04T04:03:36;4.80;99.90
22035;DHT22;11181;51.002;4.356;2023-12-04T04:06:05;4.80;99.90
22035;DHT22;11181;51.002;4.356;2023-12-04T04:08:32;4.60;99.90
22035;DHT22;11181;51.002;4.356;2023-12-04T04:10:59;4.60;99.90
22035;DHT22;11181;51.002;4.356;2023-12-04T04:13:27;4.60;99.90
22035;DHT22;11181;51.002;4.356;2023-12-04T04:15:54;4.70;99.90
22035;DHT22;11181;51.002;4.356;2023-12-04T04:18:20;4.70;99.90
22035;DHT22;11181;51.002;4.356;2023-12-04T04:20:47;4.60;99.90
22035;DHT22;11181;51.002;4.356;2023-12-04T04:23:16;4.60;99.90
22035;DHT22;11181;51.002;4.356;2023-12-04T04:25:42;4.60;99.90
22035;DHT22;11181;51.002;4.356;2023-12-04T04:28:09;4.50;99.90
22035;DHT22;11181;51.002;4.356;2023-12-04T04:30:36;4.50;99.90
22035;DHT22;11181;51.002;4.356;2023-12-04T04:33:03;4.50;99.90
22035;DHT22;11181;51.002;4.356;2023-12-04T04:35:31;4.60;99.90
22035;DHT22;11181;51.002;4.356;2023-12-04T04:37:58;4.60;99.90
22035;DHT22;11181;51.002;4.356;2023-12-04T04:40:26;4.60;99.90
22035;DHT22;11181;51.002;4.356;2023-12-04T04:42:53;4.60;99.90
22035;DHT22;11181;51.002;4.356;2023-12-04T04:45:19;4.60;99.90
22035;DHT22;11181;51.002;4.356;2023-12-04T04:47:46;4.60;99.90
22035;DHT22;11181;51.002;4.356;2023-12-04T04:50:13;4.50;99.90
22035;DHT22;11181;51.002;4.356;2023-12-04T04:52:40;4.70;99.90
22035;DHT22;11181;51.002;4.356;2023-12-04T04:55:08;4.70;99.90
22035;DHT22;11181;51.002;4.356;2023-12-04T04:57:36;4.90;99.90
22035;DHT22;11181;51.002;4.356;2023-12-04T05:00:03;4.90;99.90
22035;DHT22;11181;51.002;4.356;2023-12-04T05:02:31;5.00;99.90
22035;DHT22;11181;51.002;4.356;2023-12-04T05:04:57;5.10;99.90
22035;DHT22;11181;51.002;4.356;2023-12-04T05:07:24;5.10;99.90
22035;DHT22;11181;51.002;4.356;2023-12-04T05:09:51;5.20;99.90
22035;DHT22;11181;51.002;4.356;2023-12-04T05:12:18;5.20;99.90
22035;DHT22;11181;51.002;4.356;2023-12-04T05:14:46;5.20;99.90
22035;DHT22;11181;51.002;4.356;2023-12-04T05:17:13;5.20;99.90
22035;DHT22;11181;51.002;4.356;2023-12-04T05:19:40;5.20;99.90
22035;DHT22;11181;51.002;4.356;2023-12-04T05:22:07;5.30;99.90
22035;DHT22;11181;51.002;4.356;2023-12-04T05:24:34;5.30;99.90
22035;DHT22;11181;51.002;4.356;2023-12-04T05:27:02;5.40;99.90
22035;DHT22;11181;51.002;4.356;2023-12-04T05:29:29;5.30;99.90
22035;DHT22;11181;51.002;4.356;2023-12-04T05:31:57;5.40;99.90
22035;DHT22;11181;51.002;4.356;2023-12-04T05:34:24;5.40;99.90
22035;DHT22;11181;51.002;4.356;2023-12-04T05:36:51;5.60;99.90
22035;DHT22;11181;51.002;4.356;2023-12-04T05:39:18;5.50;99.90
22035;DHT22;11181;51.002;4.356;2023-12-04T05:41:44;5.40;99.90
22035;DHT22;11181;51.002;4.356;2023-12-04T05:44:11;5.40;99.90
22035;DHT22;11181;51.002;4.356;2023-12-04T05:46:39;5.40;99.90
22035;DHT22;11181;51.002;4.356;2023-12-04T05:49:07;5.30;99.90
22035;DHT22;11181;51.002;4.356;2023-12-04T05:51:35;5.30;99.90
22035;DHT22;11181;51.002;4.356;2023-12-04T05:54:02;5.20;99.90
22035;DHT22;11181;51.002;4.356;2023-12-04T05:56:29;5.10;99.90
22035;DHT22;11181;51.002;4.356;2023-12-04T05:58:56;5.10;99.90
22035;DHT22;11181;51.002;4.356;2023-12-04T06:01:23;5.10;99.90
22035;DHT22;11181;51.002;4.356;2023-12-04T06:03:50;5.10;99.90
22035;DHT22;11181;51.002;4.356;2023-12-04T06:06:18;5.10;99.90
22035;DHT22;11181;51.002;4.356;2023-12-04T06:08:45;5.10;99.90
22035;DHT22;11181;51.002;4.356;2023-12-04T06:11:12;5.10;99.90
22035;DHT22;11181;51.002;4.356;2023-12-04T06:13:39;5.20;99.90
22035;DHT22;11181;51.002;4.356;2023-12-04T06:16:07;5.10;99.90
22035;DHT22;11181;51.002;4.356;2023-12-04T06:18:34;5.00;99.90
22035;DHT22;11181;51.002;4.356;2023-12-04T06:21:01;5.00;99.90
22035;DHT22;11181;51.002;4.356;2023-12-04T06:23:29;4.90;99.90
22035;DHT22;11181;51.002;4.356;2023-12-04T06:25:57;4.90;99.90
22035;DHT22;11181;51.002;4.356;2023-12-04T06:28:24;4.80;99.90
22035;DHT22;11181;51.002;4.356;2023-12-04T06:30:52;4.90;99.90
22035;DHT22;11181;51.002;4.356;2023-12-04T06:33:19;4.90;99.90
22035;DHT22;11181;51.002;4.356;2023-12-04T06:35:47;4.90;99.90
22035;DHT22;11181;51.002;4.356;2023-12-04T06:38:15;4.90;99.90
22035;DHT22;11181;51.002;4.356;2023-12-04T06:40:44;4.80;99.90
22035;DHT22;11181;51.002;4.356;2023-12-04T06:43:12;4.80;99.90
22035;DHT22;11181;51.002;4.356;2023-12-04T06:45:42;4.90;99.90
22035;DHT22;11181;51.002;4.356;2023-12-04T06:48:11;4.90;99.90
22035;DHT22;11181;51.002;4.356;2023-12-04T06:50:39;5.10;99.90
22035;DHT22;11181;51.002;4.356;2023-12-04T06:53:06;5.10;99.90
22035;DHT22;11181;51.002;4.356;2023-12-04T06:55:33;5.10;99.90
22035;DHT22;11181;51.002;4.356;2023-12-04T06:58:02;5.30;99.90
22035;DHT22;11181;51.002;4.356;2023-12-04T07:00:29;5.20;99.90
22035;DHT22;11181;51.002;4.356;2023-12-04T07:02:56;5.10;99.90
22035;DHT22;11181;51.002;4.356;2023-12-04T07:05:22;5.10;99.90
22035;DHT22;11181;51.002;4.356;2023-12-04T07:07:49;5.10;99.90
22035;DHT22;11181;51.002;4.356;2023-12-04T07:10:16;5.00;99.90
22035;DHT22;11181;51.002;4.356;2023-12-04T07:12:44;5.00;99.90
22035;DHT22;11181;51.002;4.356;2023-12-04T07:15:12;5.10;99.90
22035;DHT22;11181;51.002;4.356;2023-12-04T07:17:39;5.10;99.90
22035;DHT22;11181;51.002;4.356;2023-12-04T07:20:07;5.10;99.90
22035;DHT22;11181;51.002;4.356;2023-12-04T07:22:34;5.20;99.90
22035;DHT22;11181;51.002;4.356;2023-12-04T07:25:01;5.10;99.90
22035;DHT22;11181;51.002;4.356;2023-12-04T07:27:28;5.10;99.90
22035;DHT22;11181;51.002;4.356;2023-12-04T07:29:55;5.10;99.90
22035;DHT22;11181;51.002;4.356;2023-12-04T07:32:23;5.00;99.90
22035;DHT22;11181;51.002;4.356;2023-12-04T07:34:50;5.00;99.90
22035;DHT22;11181;51.002;4.356;2023-12-04T07:37:16;5.10;99.90
22035;DHT22;11181;51.002;4.356;2023-12-04T07:39:43;5.10;99.90
22035;DHT22;11181;51.002;4.356;2023-12-04T07:42:11;5.20;99.90
22035;DHT22;11181;51.002;4.356;2023-12-04T07:44:38;5.00;99.90
22035;DHT22;11181;51.002;4.356;2023-12-04T07:47:05;4.90;99.90
22035;DHT22;11181;51.002;4.356;2023-12-04T07:49:33;4.90;99.90
22035;DHT22;11181;51.002;4.356;2023-12-04T07:52:00;4.90;99.90
22035;DHT22;11181;51.002;4.356;2023-12-04T07:54:27;4.80;99.90
22035;DHT22;11181;51.002;4.356;2023-12-04T07:56:54;4.90;99.90
22035;DHT22;11181;51.002;4.356;2023-12-04T07:59:21;4.80;99.90
22035;DHT22;11181;51.002;4.356;2023-12-04T08:01:48;4.90;99.90
22035;DHT22;11181;51.002;4.356;2023-12-04T08:04:15;4.90;99.90
22035;DHT22;11181;51.002;4.356;2023-12-04T08:06:44;4.90;99.90
22035;DHT22;11181;51.002;4.356;2023-12-04T08:09:10;4.90;99.90
22035;DHT22;11181;51.002;4.356;2023-12-04T08:11:38;4.90;99.90
22035;DHT22;11181;51.002;4.356;2023-12-04T08:14:05;4.80;99.90
22035;DHT22;11181;51.002;4.356;2023-12-04T08:16:32;4.80;99.90
22035;DHT22;11181;51.002;4.356;2023-12-04T08:18:59;4.80;99.90
22035;DHT22;11181;51.002;4.356;2023-12-04T08:21:26;4.80;99.90
22035;DHT22;11181;51.002;4.356;2023-12-04T08:23:54;4.80;99.90
22035;DHT22;11181;51.002;4.356;2023-12-04T08:26:21;4.80;99.90
22035;DHT22;11181;51.002;4.356;2023-12-04T08:28:49;4.70;99.90
22035;DHT22;11181;51.002;4.356;2023-12-04T08:31:16;4.80;99.90
22035;DHT22;11181;51.002;4.356;2023-12-04T08:33:43;4.80;99.90
22035;DHT22;11181;51.002;4.356;2023-12-04T08:36:11;4.80;99.90
22035;DHT22;11181;51.002;4.356;2023-12-04T08:38:38;4.80;99.90
22035;DHT22;11181;51.002;4.356;2023-12-04T08:41:07;4.90;99.90
22035;DHT22;11181;51.002;4.356;2023-12-04T08:43:34;4.90;99.90
22035;DHT22;11181;51.002;4.356;2023-12-04T08:46:00;4.90;99.90
22035;DHT22;11181;51.002;4.356;2023-12-04T08:48:27;4.90;99.90
22035;DHT22;11181;51.002;4.356;2023-12-04T08:50:55;5.00;99.90
22035;DHT22;11181;51.002;4.356;2023-12-04T08:53:22;5.00;99.90
22035;DHT22;11181;51.002;4.356;2023-12-04T08:55:49;5.00;99.90
22035;DHT22;11181;51.002;4.356;2023-12-04T08:58:18;5.00;99.90
22035;DHT22;11181;51.002;4.356;2023-12-04T09:00:45;4.90;99.90
22035;DHT22;11181;51.002;4.356;2023-12-04T09:03:12;4.90;99.90
22035;DHT22;11181;51.002;4.356;2023-12-04T09:05:39;4.90;99.90
22035;DHT22;11181;51.002;4.356;2023-12-04T09:08:06;4.90;99.90
22035;DHT22;11181;51.002;4.356;2023-12-04T09:10:33;4.90;99.90
22035;DHT22;11181;51.002;4.356;2023-12-04T09:13:00;4.90;99.90
22035;DHT22;11181;51.002;4.356;2023-12-04T09:15:29;5.00;99.90
22035;DHT22;11181;51.002;4.356;2023-12-04T09:17:56;5.00;99.90
22035;DHT22;11181;51.002;4.356;2023-12-04T09:20:23;5.00;99.90
22035;DHT22;11181;51.002;4.356;2023-12-04T09:22:50;5.00;99.90
22035;DHT22;11181;51.002;4.356;2023-12-04T09:25:17;5.10;99.90
22035;DHT22;11181;51.002;4.356;2023-12-04T09:27:44;5.10;99.90
22035;DHT22;11181;51.002;4.356;2023-12-04T09:30:11;5.10;99.90
22035;DHT22;11181;51.002;4.356;2023-12-04T09:32:40;5.00;99.90
22035;DHT22;11181;51.002;4.356;2023-12-04T09:35:08;5.00;99.90
22035;DHT22;11181;51.002;4.356;2023-12-04T09:37:36;5.00;99.90
22035;DHT22;11181;51.002;4.356;2023-12-04T09:40:03;5.00;99.90
22035;DHT22;11181;51.002;4.356;2023-12-04T09:42:31;4.90;99.90
22035;DHT22;11181;51.002;4.356;2023-12-04T09:44:58;5.00;99.90
22035;DHT22;11181;51.002;4.356;2023-12-04T09:47:27;5.00;99.90
22035;DHT22;11181;51.002;4.356;2023-12-04T09:49:57;5.00;99.90
22035;DHT22;11181;51.002;4.356;2023-12-04T09:52:27;5.00;99.90
22035;DHT22;11181;51.002;4.356;2023-12-04T09:54:55;5.00;99.90
22035;DHT22;11181;51.002;4.356;2023-12-04T09:57:23;4.80;99.90
22035;DHT22;11181;51.002;4.356;2023-12-04T09:59:51;4.80;99.90
22035;DHT22;11181;51.002;4.356;2023-12-04T10:02:19;4.70;99.90
22035;DHT22;11181;51.002;4.356;2023-12-04T10:04:47;4.60;99.90
22035;DHT22;11181;51.002;4.356;2023-12-04T10:07:16;4.60;99.90
22035;DHT22;11181;51.002;4.356;2023-12-04T10:09:43;4.60;99.90
22035;DHT22;11181;51.002;4.356;2023-12-04T10:12:10;4.60;99.90
22035;DHT22;11181;51.002;4.356;2023-12-04T10:14:37;4.50;99.90
22035;DHT22;11181;51.002;4.356;2023-12-04T10:17:14;4.40;99.90
22035;DHT22;11181;51.002;4.356;2023-12-04T10:19:41;4.40;99.90
22035;DHT22;11181;51.002;4.356;2023-12-04T10:22:08;4.30;99.90
22035;DHT22;11181;51.002;4.356;2023-12-04T10:24:38;4.30;99.90
22035;DHT22;11181;51.002;4.356;2023-12-04T10:27:07;4.30;99.90
22035;DHT22;11181;51.002;4.356;2023-12-04T10:29:43;4.20;99.90
22035;DHT22;11181;51.002;4.356;2023-12-04T10:32:11;4.20;99.90
22035;DHT22;11181;51.002;4.356;2023-12-04T10:34:38;4.10;99.90
22035;DHT22;11181;51.002;4.356;2023-12-04T10:37:10;4.20;99.90
22035;DHT22;11181;51.002;4.356;2023-12-04T10:39:46;4.20;99.90
22035;DHT22;11181;51.002;4.356;2023-12-04T10:42:23;4.20;99.90
22035;DHT22;11181;51.002;4.356;2023-12-04T10:44:52;4.30;99.90
22035;DHT22;11181;51.002;4.356;2023-12-04T10:47:22;4.30;99.90
22035;DHT22;11181;51.002;4.356;2023-12-04T10:49:50;4.30;99.90
22035;DHT22;11181;51.002;4.356;2023-12-04T10:52:18;4.30;99.90
22035;DHT22;11181;51.002;4.356;2023-12-04T10:54:47;4.30;99.90
22035;DHT22;11181;51.002;4.356;2023-12-04T10:57:21;4.20;99.90
22035;DHT22;11181;51.002;4.356;2023-12-04T10:59:52;4.20;99.90
22035;DHT22;11181;51.002;4.356;2023-12-04T11:02:25;4.30;99.90
22035;DHT22;11181;51.002;4.356;2023-12-04T11:04:56;4.30;99.90
22035;DHT22;11181;51.002;4.356;2023-12-04T11:07:25;4.30;99.90
22035;DHT22;11181;51.002;4.356;2023-12-04T11:09:57;4.20;99.90
22035;DHT22;11181;51.002;4.356;2023-12-04T11:12:28;4.20;99.90
22035;DHT22;11181;51.002;4.356;2023-12-04T11:14:59;4.30;99.90
22035;DHT22;11181;51.002;4.356;2023-12-04T11:17:32;4.20;99.90
22035;DHT22;11181;51.002;4.356;2023-12-04T11:20:07;4.20;99.90
22035;DHT22;11181;51.002;4.356;2023-12-04T11:22:38;4.20;99.90
22035;DHT22;11181;51.002;4.356;2023-12-04T11:25:08;4.30;99.90
22035;DHT22;11181;51.002;4.356;2023-12-04T11:27:36;4.40;99.90
22035;DHT22;11181;51.002;4.356;2023-12-04T11:30:05;4.40;99.90
22035;DHT22;11181;51.002;4.356;2023-12-04T11:32:44;4.40;99.90
22035;DHT22;11181;51.002;4.356;2023-12-04T11:35:13;4.50;99.90
22035;DHT22;11181;51.002;4.356;2023-12-04T11:37:41;4.50;99.90
22035;DHT22;11181;51.002;4.356;2023-12-04T11:40:13;4.50;99.90
22035;DHT22;11181;51.002;4.356;2023-12-04T11:42:40;4.60;99.90
22035;DHT22;11181;51.002;4.356;2023-12-04T11:45:07;4.60;99.90
22035;DHT22;11181;51.002;4.356;2023-12-04T11:47:51;4.70;99.90
22035;DHT22;11181;51.002;4.356;2023-12-04T11:50:19;4.60;99.90
22035;DHT22;11181;51.002;4.356;2023-12-04T11:52:47;4.70;99.90
22035;DHT22;11181;51.002;4.356;2023-12-04T11:55:18;4.70;99.90
22035;DHT22;11181;51.002;4.356;2023-12-04T11:57:49;4.70;99.90
22035;DHT22;11181;51.002;4.356;2023-12-04T12:00:21;4.70;99.90
22035;DHT22;11181;51.002;4.356;2023-12-04T12:03:01;4.60;99.90
22035;DHT22;11181;51.002;4.356;2023-12-04T12:05:32;4.60;99.90
22035;DHT22;11181;51.002;4.356;2023-12-04T12:08:02;4.50;99.90
22035;DHT22;11181;51.002;4.356;2023-12-04T12:10:31;4.60;99.90
22035;DHT22;11181;51.002;4.356;2023-12-04T12:12:58;4.60;99.90
22035;DHT22;11181;51.002;4.356;2023-12-04T12:15:27;4.60;99.90
22035;DHT22;11181;51.002;4.356;2023-12-04T12:17:54;4.60;99.90
22035;DHT22;11181;51.002;4.356;2023-12-04T12:20:21;4.60;99.90
22035;DHT22;11181;51.002;4.356;2023-12-04T12:22:49;4.60;99.90
22035;DHT22;11181;51.002;4.356;2023-12-04T12:25:17;4.60;99.90
22035;DHT22;11181;51.002;4.356;2023-12-04T12:27:46;4.60;99.90
22035;DHT22;11181;51.002;4.356;2023-12-04T12:30:13;4.60;99.90
22035;DHT22;11181;51.002;4.356;2023-12-04T12:32:40;4.50;99.90
22035;DHT22;11181;51.002;4.356;2023-12-04T12:35:07;4.50;99.90
22035;DHT22;11181;51.002;4.356;2023-12-04T12:37:35;4.50;99.90
22035;DHT22;11181;51.002;4.356;2023-12-04T12:40:04;4.60;99.90
22035;DHT22;11181;51.002;4.356;2023-12-04T12:42:31;4.70;99.90
22035;DHT22;11181;51.002;4.356;2023-12-04T12:45:01;4.70;99.90
22035;DHT22;11181;51.002;4.356;2023-12-04T12:47:29;4.60;99.90
22035;DHT22;11181;51.002;4.356;2023-12-04T12:49:56;4.70;99.90
22035;DHT22;11181;51.002;4.356;2023-12-04T12:52:23;4.80;99.90
22035;DHT22;11181;51.002;4.356;2023-12-04T12:54:50;4.80;99.90
22035;DHT22;11181;51.002;4.356;2023-12-04T12:57:18;4.70;99.90
22035;DHT22;11181;51.002;4.356;2023-12-04T12:59:45;4.60;99.90
22035;DHT22;11181;51.002;4.356;2023-12-04T13:02:14;4.70;99.90
22035;DHT22;11181;51.002;4.356;2023-12-04T13:04:42;4.70;99.90
22035;DHT22;11181;51.002;4.356;2023-12-04T13:07:09;4.70;99.90
22035;DHT22;11181;51.002;4.356;2023-12-04T13:09:37;4.80;99.90
22035;DHT22;11181;51.002;4.356;2023-12-04T13:12:05;5.00;99.90
22035;DHT22;11181;51.002;4.356;2023-12-04T13:14:34;5.00;99.90
22035;DHT22;11181;51.002;4.356;2023-12-04T13:17:01;5.00;99.90
22035;DHT22;11181;51.002;4.356;2023-12-04T13:19:29;4.90;99.90
22035;DHT22;11181;51.002;4.356;2023-12-04T13:21:57;4.90;99.90
22035;DHT22;11181;51.002;4.356;2023-12-04T13:24:24;4.90;99.90
22035;DHT22;11181;51.002;4.356;2023-12-04T13:26:51;4.90;99.90
22035;DHT22;11181;51.002;4.356;2023-12-04T13:29:18;4.90;99.90
22035;DHT22;11181;51.002;4.356;2023-12-04T13:31:45;5.00;99.90
22035;DHT22;11181;51.002;4.356;2023-12-04T13:34:15;5.00;99.90
22035;DHT22;11181;51.002;4.356;2023-12-04T13:36:43;5.00;99.90
22035;DHT22;11181;51.002;4.356;2023-12-04T13:39:10;5.00;99.90
22035;DHT22;11181;51.002;4.356;2023-12-04T13:41:43;5.00;99.90
22035;DHT22;11181;51.002;4.356;2023-12-04T13:44:28;5.00;99.90
22035;DHT22;11181;51.002;4.356;2023-12-04T13:46:55;4.90;99.90
22035;DHT22;11181;51.002;4.356;2023-12-04T13:49:22;4.90;99.90
22035;DHT22;11181;51.002;4.356;2023-12-04T13:51:51;4.90;99.90
22035;DHT22;11181;51.002;4.356;2023-12-04T13:54:19;4.90;99.90
22035;DHT22;11181;51.002;4.356;2023-12-04T13:56:51;4.90;99.90
22035;DHT22;11181;51.002;4.356;2023-12-04T13:59:23;4.80;99.90
22035;DHT22;11181;51.002;4.356;2023-12-04T14:01:50;4.80;99.90
22035;DHT22;11181;51.002;4.356;2023-12-04T14:04:20;4.90;99.90
22035;DHT22;11181;51.002;4.356;2023-12-04T14:06:50;4.90;99.90
22035;DHT22;11181;51.002;4.356;2023-12-04T14:09:17;4.90;99.90
22035;DHT22;11181;51.002;4.356;2023-12-04T14:11:44;5.00;99.90
22035;DHT22;11181;51.002;4.356;2023-12-04T14:14:11;5.00;99.90
22035;DHT22;11181;51.002;4.356;2023-12-04T14:16:39;5.00;99.90
22035;DHT22;11181;51.002;4.356;2023-12-04T14:19:07;4.90;99.90
22035;DHT22;11181;51.002;4.356;2023-12-04T14:21:34;4.90;99.90
22035;DHT22;11181;51.002;4.356;2023-12-04T14:24:02;5.00;99.90
22035;DHT22;11181;51.002;4.356;2023-12-04T14:26:29;5.00;99.90
22035;DHT22;11181;51.002;4.356;2023-12-04T14:28:56;5.00;99.90
22035;DHT22;11181;51.002;4.356;2023-12-04T14:31:26;5.00;99.90
22035;DHT22;11181;51.002;4.356;2023-12-04T14:33:53;5.00;99.90
22035;DHT22;11181;51.002;4.356;2023-12-04T14:36:20;4.90;99.90
22035;DHT22;11181;51.002;4.356;2023-12-04T14:38:47;5.00;99.90
22035;DHT22;11181;51.002;4.356;2023-12-04T14:41:15;5.10;99.90
22035;DHT22;11181;51.002;4.356;2023-12-04T14:43:42;4.80;99.90
22035;DHT22;11181;51.002;4.356;2023-12-04T14:46:09;4.90;99.90
22035;DHT22;11181;51.002;4.356;2023-12-04T14:48:37;5.00;99.90
22035;DHT22;11181;51.002;4.356;2023-12-04T14:51:06;5.00;99.90
22035;DHT22;11181;51.002;4.356;2023-12-04T14:53:33;5.00;99.90
22035;DHT22;11181;51.002;4.356;2023-12-04T14:56:10;5.10;99.90
22035;DHT22;11181;51.002;4.356;2023-12-04T14:58:58;5.20;99.90
22035;DHT22;11181;51.002;4.356;2023-12-04T15:01:42;4.80;99.90
22035;DHT22;11181;51.002;4.356;2023-12-04T15:04:28;4.90;99.90
22035;DHT22;11181;51.002;4.356;2023-12-04T15:07:12;4.90;99.90
22035;DHT22;11181;51.002;4.356;2023-12-04T15:09:52;4.80;99.90
22035;DHT22;11181;51.002;4.356;2023-12-04T15:12:42;4.80;99.90
22035;DHT22;11181;51.002;4.356;2023-12-04T15:15:24;5.00;99.90
22035;DHT22;11181;51.002;4.356;2023-12-04T15:18:05;4.90;99.90
22035;DHT22;11181;51.002;4.356;2023-12-04T15:20:50;4.90;99.90
22035;DHT22;11181;51.002;4.356;2023-12-04T15:23:17;4.90;99.90
22035;DHT22;11181;51.002;4.356;2023-12-04T15:25:47;5.00;99.90
22035;DHT22;11181;51.002;4.356;2023-12-04T15:28:14;5.10;99.90
22035;DHT22;11181;51.002;4.356;2023-12-04T15:30:41;5.10;99.90
22035;DHT22;11181;51.002;4.356;2023-12-04T15:33:10;5.00;99.90
22035;DHT22;11181;51.002;4.356;2023-12-04T15:35:36;5.10;99.90
22035;DHT22;11181;51.002;4.356;2023-12-04T15:38:03;5.10;99.90
22035;DHT22;11181;51.002;4.356;2023-12-04T15:40:30;5.00;99.90
22035;DHT22;11181;51.002;4.356;2023-12-04T15:42:56;5.00;99.90
22035;DHT22;11181;51.002;4.356;2023-12-04T15:45:23;4.90;99.90
22035;DHT22;11181;51.002;4.356;2023-12-04T15:47:51;4.90;99.90
22035;DHT22;11181;51.002;4.356;2023-12-04T15:50:18;4.90;99.90